Currently 52°F in Simi Valley, California, USA
52°F
52°F / 37°F
5 mph SW
0.00"
Wednesday, February 20, 2019 11:26 AM PST

Simi Valley, California Weather Summary
Last 36 Hours

Temperature Winds Hourly Humidity Dewpoint
Time Report Norm Report Norm Max Gusts Precip. Rpt. Norm Rpt. Norm Pressure
1Wed 11:26 AM  51.6°F  65°F  5 mph SW  4 mph  11 mph  0.00"  63%  44%  39°F  41°F  29.92"
Wed 11:00 AM  51.4°F  64°F  3 mph S  4 mph  12 mph  0.00"  63%  45%  39°F  41°F  29.93"
Wed 10:00 AM  50.9°F  61°F  4 mph SW  3 mph  9 mph  0.00"  66%  51%  40°F  42°F  29.96"
2Wed 09:50 AM  51.7°F  60°F  3 mph SW  3 mph  9 mph  ----  68%  52%  41°F  42°F  29.96"
Wed 09:00 AM  47.2°F  56°F  calm  2 mph  7 mph  0.00"  75%  58%  39°F  41°F  29.98"
Wed 08:00 AM  39.0°F  51°F  calm  2 mph  7 mph  0.00"  81%  63%  33°F  39°F  30.01"
Wed 07:00 AM  36.6°F  48°F  3 mph NW  3 mph  6 mph  0.00"  80%  66%  31°F  37°F  30.01"
3Wed 06:31 AM  36.6°F  48°F  2 mph SW  3 mph  5 mph  ----  79%  66%  30°F  37°F  30.01"
Wed 06:00 AM  36.8°F  48°F  2 mph E  3 mph  5 mph  0.00"  78%  66%  30°F  37°F  30.01"
Wed 05:00 AM  37.5°F  49°F  calm  3 mph  8 mph  0.00"  76%  65%  30°F  37°F  30.02"
Wed 04:00 AM  38.7°F  49°F  calm  3 mph  8 mph  0.00"  74%  64%  31°F  37°F  30.03"
Wed 03:00 AM  39.6°F  50°F  calm  3 mph  7 mph  0.00"  73%  65%  31°F  38°F  30.03"
Wed 02:00 AM  40.5°F  50°F  4 mph NW  3 mph  8 mph  0.00"  73%  65%  32°F  38°F  30.06"
Wed 01:00 AM  40.5°F  51°F  calm  2 mph  4 mph  0.00"  72%  64%  32°F  39°F  30.06"
Wed 12:00 AM  40.3°F  51°F  calm  2 mph  6 mph  0.00"  71%  65%  31°F  39°F  30.08"
Tue 11:00 PM  39.8°F  52°F  2 mph SW  2 mph  8 mph  0.00"  71%  64%  31°F  40°F  30.09"
Tue 10:00 PM  40.1°F  52°F  3 mph S  2 mph  7 mph  0.00"  70%  63%  31°F  40°F  30.10"
Tue 09:00 PM  41.1°F  53°F  2 mph NW  2 mph  8 mph  0.00"  68%  62%  31°F  40°F  30.09"
Tue 08:00 PM  43.2°F  55°F  4 mph W  2 mph  6 mph  0.00"  64%  61%  31°F  41°F  30.09"
Tue 07:00 PM  46.6°F  57°F  calm  2 mph  6 mph  0.00"  59%  59%  33°F  42°F  30.08"
Tue 06:00 PM  49.7°F  60°F  4 mph NW  2 mph  15 mph  0.00"  56%  55%  34°F  43°F  30.06"
Tue 05:00 PM  52.7°F  63°F  9 mph W  3 mph  16 mph  0.00"  49%  51%  33°F  44°F  30.05"
Tue 04:00 PM  57.3°F  65°F  5 mph NW  5 mph  13 mph  0.00"  34%  47%  28°F  44°F  30.04"
Tue 03:00 PM  57.9°F  67°F  3 mph E  5 mph  11 mph  0.00"  35%  45%  29°F  44°F  30.06"
Tue 02:00 PM  58.1°F  67°F  6 mph SE  4 mph  13 mph  0.00"  34%  42%  29°F  43°F  30.07"
Tue 01:00 PM  57.5°F  67°F  7 mph NE  4 mph  16 mph  0.00"  35%  41%  29°F  42°F  30.10"
Tue 12:00 PM  56.2°F  66°F  3 mph SW  4 mph  19 mph  0.00"  37%  42%  29°F  42°F  30.13"
Tue 11:00 AM  54.6°F  64°F  6 mph NE  4 mph  21 mph  0.00"  43%  45%  31°F  42°F  30.14"
Tue 10:00 AM  50.8°F  61°F  8 mph E  3 mph  24 mph  0.00"  47%  51%  30°F  42°F  30.15"
Tue 09:00 AM  47.3°F  57°F  6 mph SE  2 mph  22 mph  0.00"  50%  58%  29°F  42°F  30.14"
Tue 08:00 AM  44.6°F  52°F  10 mph E  2 mph  18 mph  0.00"  53%  64%  28°F  39°F  30.13"
Tue 07:00 AM  42.7°F  49°F  6 mph NE  3 mph  23 mph  0.00"  55%  66%  27°F  38°F  30.12"
Tue 06:00 AM  43.1°F  49°F  11 mph SE  3 mph  25 mph  0.00"  54%  66%  27°F  38°F  30.09"
Tue 05:00 AM  43.1°F  49°F  9 mph E  3 mph  22 mph  0.00"  55%  65%  27°F  38°F  30.09"
Tue 04:00 AM  43.4°F  50°F  4 mph S  3 mph  24 mph  0.00"  55%  65%  28°F  38°F  30.09"
Tue 03:00 AM  42.3°F  50°F  6 mph SE  3 mph  19 mph  0.00"  60%  65%  29°F  38°F  30.09"
Tue 02:00 AM  42.7°F  50°F  4 mph SE  3 mph  14 mph  0.00"  60%  65%  29°F  39°F  30.10"
Tue 01:00 AM  40.9°F  51°F  calm  2 mph  11 mph  0.00"  62%  65%  28°F  39°F  30.12"
Tue 12:00 AM  41.8°F  51°F  5 mph E  2 mph  11 mph  0.00"  61%  65%  29°F  40°F  30.11"

  1. Current weather data. No green row appears if the current weather data is also the high or low for the current day.
  2. High temperature for the current day.
  3. Low temperature for the current day.

The Simi Valley, California weather pages are a service of WeatherCurrents.
Copyright ©Wed Feb 20 11:27:06 PST 2019  WeatherCurrents. All rights reserved. - Submit questions and comments - Privacy Policy

This page automatically refreshes every 10 minutes.